Time;durP1;ratioP1;P1;durP2;ratioP2;P2;SDS_P1;SDS_P2;PMS_P1;PMS_P2;Temp;Humidity;BMP_temperature;BMP_pressure;BME280_temperature;BME280_humidity;BME280_pressure;Samples;Min_cycle;Max_cycle;Signal;HPM_P1;HPM_P2
2022/08/18 00:01:14;;;;;;;12.93;4.03;;;;;;;20.04;94.73;101066.91;7387375;19;20011;-66
2022/08/18 00:03:46;;;;;;;15.88;3.80;;;;;;;20.03;95.50;101067.94;7385967;19;20033;-66
2022/08/18 00:06:27;;;;;;;14.88;3.88;;;;;;;20.03;95.30;101067.13;7386626;19;20122;-66
2022/08/18 00:08:57;;;;;;;16.10;3.80;;;;;;;20.02;95.59;101063.63;7384140;19;20432;-66
2022/08/18 00:11:24;;;;;;;11.20;3.17;;;;;;;20.04;96.18;101068.78;7387257;19;20020;-67
2022/08/18 00:13:51;;;;;;;12.10;3.50;;;;;;;20.05;96.16;101062.41;7385866;19;20014;-66
2022/08/18 00:16:18;;;;;;;9.75;2.90;;;;;;;20.06;95.62;101067.50;7383483;19;20018;-64
2022/08/18 00:18:45;;;;;;;10.27;3.20;;;;;;;20.07;95.51;101063.00;7386760;19;20366;-63
2022/08/18 00:21:12;;;;;;;19.95;3.45;;;;;;;20.08;95.06;101062.78;7384866;19;20027;-63
2022/08/18 00:23:39;;;;;;;16.55;3.40;;;;;;;20.09;95.63;101063.63;7381172;19;20340;-65
2022/08/18 00:26:08;;;;;;;14.88;3.25;;;;;;;20.11;96.00;101069.59;7386612;19;20566;-66
2022/08/18 00:28:36;;;;;;;18.05;3.45;;;;;;;20.13;96.41;101074.69;7384862;19;20022;-66
2022/08/18 00:31:04;;;;;;;13.88;3.72;;;;;;;20.13;96.57;101074.69;7385848;19;20017;-66
2022/08/18 00:33:32;;;;;;;12.82;3.95;;;;;;;20.18;95.43;101077.56;7386012;19;20007;-67
2022/08/18 00:35:59;;;;;;;14.48;3.85;;;;;;;20.15;94.97;101075.31;7380876;19;20019;-67
2022/08/18 00:38:26;;;;;;;9.90;3.40;;;;;;;20.17;94.31;101078.59;7383279;19;20014;-69
2022/08/18 00:40:55;;;;;;;12.23;3.47;;;;;;;20.18;94.00;101073.03;7381500;19;20103;-68
2022/08/18 00:43:30;;;;;;;11.45;3.92;;;;;;;20.13;94.51;101080.03;7385556;19;20470;-68
2022/08/18 00:45:59;;;;;;;10.95;4.25;;;;;;;20.11;94.89;101071.44;7386075;19;20308;-68
2022/08/18 00:48:28;;;;;;;12.80;3.83;;;;;;;20.11;94.64;101072.25;7383308;19;20123;-68
2022/08/18 00:50:58;;;;;;;13.32;3.78;;;;;;;20.11;94.86;101074.09;7380595;19;20373;-67
2022/08/18 00:53:45;;;;;;;12.75;3.72;;;;;;;20.05;94.96;101070.41;7386576;19;20010;-69
2022/08/18 00:56:21;;;;;;;12.10;3.97;;;;;;;20.03;95.53;101064.44;7386991;19;20025;-67
2022/08/18 00:59:18;;;;;;;9.35;3.78;;;;;;;20.02;95.81;101063.63;7383432;19;20010;-66
2022/08/18 01:01:51;;;;;;;17.83;6.07;;;;;;;20.05;96.58;101062.41;7381331;19;20018;-67
2022/08/18 01:04:24;;;;;;;18.13;4.22;;;;;;;20.08;97.13;101057.44;7382606;19;20035;-68
2022/08/18 01:07:09;;;;;;;13.63;4.22;;;;;;;20.09;96.70;101047.59;7385192;19;20018;-67
2022/08/18 01:09:37;;;;;;;12.98;4.05;;;;;;;20.11;96.75;101042.88;7384298;19;20490;-68
2022/08/18 01:12:05;;;;;;;14.85;4.13;;;;;;;20.14;96.95;101044.28;7386062;19;20010;-67
2022/08/18 01:14:53;;;;;;;14.65;3.53;;;;;;;20.14;95.41;101037.09;7382240;19;20359;-66
2022/08/18 01:23:14;;;;;;;9.10;3.78;;;;;;;20.17;94.13;101049.19;7382972;19;20014;-67
2022/08/18 01:26:05;;;;;;;13.68;4.18;;;;;;;20.17;95.04;101051.88;7385281;19;20014;-67
2022/08/18 01:28:37;;;;;;;13.85;4.10;;;;;;;20.17;94.74;101046.53;7383657;19;20078;-67
2022/08/18 01:31:05;;;;;;;7.93;3.85;;;;;;;20.17;94.82;101046.53;7383905;19;20077;-66
2022/08/18 01:33:35;;;;;;;11.90;4.60;;;;;;;20.17;94.98;101054.53;7385136;19;20007;-66
2022/08/18 01:36:19;;;;;;;14.02;4.38;;;;;;;20.14;94.79;101058.47;7381132;19;20339;-67
2022/08/18 01:38:51;;;;;;;14.95;4.78;;;;;;;20.12;95.13;101055.16;7382182;19;20021;-68
2022/08/18 01:41:20;;;;;;;8.82;3.95;;;;;;;20.13;95.27;101050.66;7384675;19;20014;-68
2022/08/18 01:43:57;;;;;;;12.40;4.18;;;;;;;20.13;95.19;101047.97;7383548;19;20427;-67
2022/08/18 01:46:27;;;;;;;8.50;4.43;;;;;;;20.12;95.31;101043.66;7384404;19;20022;-66
2022/08/18 01:48:55;;;;;;;15.10;4.55;;;;;;;20.12;95.02;101047.16;7380107;19;20493;-66
2022/08/18 01:51:23;;;;;;;11.65;4.57;;;;;;;20.13;95.26;101051.47;7382597;19;20022;-67
2022/08/18 01:54:09;;;;;;;17.48;3.88;;;;;;;20.11;95.29;101055.41;7383126;19;20462;-68
2022/08/18 01:56:36;;;;;;;13.52;4.20;;;;;;;20.11;95.45;101058.06;7383838;19;20014;-67
2022/08/18 01:59:05;;;;;;;10.32;4.60;;;;;;;20.12;94.64;101062.38;7383053;19;20017;-67
2022/08/18 02:01:37;;;;;;;10.52;4.13;;;;;;;20.13;95.04;101059.50;7384805;19;20033;-69
2022/08/18 02:04:16;;;;;;;16.90;4.80;;;;;;;20.11;94.99;101061.56;7378873;19;20014;-67
2022/08/18 02:07:03;;;;;;;10.50;5.15;;;;;;;20.10;95.06;101051.91;7383439;19;20282;-67
2022/08/18 02:09:32;;;;;;;18.63;5.55;;;;;;;20.08;94.95;101057.44;7380860;19;20017;-67
2022/08/18 02:12:00;;;;;;;14.50;5.70;;;;;;;20.08;95.27;101060.13;7383411;19;20018;-67
2022/08/18 02:14:27;;;;;;;12.77;4.55;;;;;;;20.13;94.57;101062.16;7381371;19;20120;-66
2022/08/18 02:16:59;;;;;;;13.77;5.35;;;;;;;20.13;94.13;101062.16;7383420;19;20011;-66
2022/08/18 02:19:43;;;;;;;13.15;4.93;;;;;;;20.07;95.22;101055.81;7373806;19;20017;-68
2022/08/18 02:22:13;;;;;;;14.15;5.00;;;;;;;20.03;95.71;101045.75;7382713;19;20086;-68
2022/08/18 02:24:41;;;;;;;12.98;4.38;;;;;;;20.02;95.53;101052.13;7383108;19;20017;-66
2022/08/18 02:27:10;;;;;;;11.38;4.88;;;;;;;20.00;95.41;101057.69;7376915;19;20347;-67
2022/08/18 02:29:37;;;;;;;13.48;4.85;;;;;;;20.00;95.40;101054.19;7381010;19;20014;-67
2022/08/18 02:32:05;;;;;;;14.57;4.55;;;;;;;19.98;94.93;101046.38;7382548;19;20416;-67
2022/08/18 02:34:32;;;;;;;11.45;4.57;;;;;;;19.98;95.13;101038.34;7378549;19;20043;-66
2022/08/18 02:37:00;;;;;;;12.48;4.47;;;;;;;19.97;95.26;101036.72;7381927;19;20393;-67
2022/08/18 02:39:29;;;;;;;10.18;4.68;;;;;;;19.98;95.68;101042.88;7381515;19;20019;-66
2022/08/18 02:41:56;;;;;;;10.07;4.03;;;;;;;19.99;95.16;101044.53;7383118;19;20490;-67
2022/08/18 02:44:23;;;;;;;9.60;4.30;;;;;;;20.00;95.34;101038.97;7381450;19;20011;-66
2022/08/18 02:46:54;;;;;;;11.73;4.68;;;;;;;20.00;95.44;101033.63;7382889;19;20017;-67
2022/08/18 02:49:21;;;;;;;14.73;4.95;;;;;;;20.01;95.31;101050.50;7377374;19;20033;-66
2022/08/18 02:51:50;;;;;;;14.18;4.60;;;;;;;20.00;95.25;101047.00;7380043;19;20018;-67
2022/08/18 02:54:19;;;;;;;14.02;4.70;;;;;;;20.02;94.75;101052.94;7380478;19;20014;-66
2022/08/18 02:56:50;;;;;;;12.80;4.43;;;;;;;20.03;94.74;101049.25;7380305;19;20086;-67
2022/08/18 02:59:20;;;;;;;9.02;4.05;;;;;;;20.02;94.67;101047.59;7381673;19;20037;-67
2022/08/18 03:01:50;;;;;;;12.50;4.43;;;;;;;20.02;94.88;101041.44;7381827;19;20014;-68
2022/08/18 03:04:27;;;;;;;11.35;3.95;;;;;;;20.01;95.21;101047.81;7381694;19;20409;-67
2022/08/18 03:07:00;;;;;;;10.90;3.80;;;;;;;20.02;95.02;101054.78;7389148;19;20014;-67
2022/08/18 03:09:28;;;;;;;13.13;4.07;;;;;;;20.02;95.02;101052.13;7386453;19;20018;-68
2022/08/18 03:11:55;;;;;;;12.30;3.70;;;;;;;20.03;95.29;101053.75;7388626;19;20017;-67
2022/08/18 03:14:23;;;;;;;9.77;3.95;;;;;;;20.03;95.25;101054.59;7388534;19;20010;-66
2022/08/18 03:16:51;;;;;;;9.55;4.03;;;;;;;20.05;95.61;101055.22;7387012;19;20503;-67
2022/08/18 03:19:23;;;;;;;10.00;4.07;;;;;;;20.06;95.33;101053.34;7383703;19;20398;-67
2022/08/18 03:21:51;;;;;;;11.07;3.85;;;;;;;20.07;95.26;101046.97;7388895;19;20010;-68
2022/08/18 03:24:19;;;;;;;12.63;3.65;;;;;;;20.07;95.17;101047.78;7387547;19;20018;-68
2022/08/18 03:26:50;;;;;;;12.25;4.50;;;;;;;20.08;93.67;101052.09;7388605;19;20021;-67
2022/08/18 03:29:18;;;;;;;9.10;3.70;;;;;;;20.08;93.94;101056.63;7386368;19;20021;-67
2022/08/18 03:31:47;;;;;;;11.68;3.55;;;;;;;20.08;93.88;101052.09;7387612;19;20679;-68
2022/08/18 03:34:18;;;;;;;13.68;3.70;;;;;;;20.07;93.29;101057.66;7384710;19;20018;-66
2022/08/18 03:36:46;;;;;;;10.90;3.70;;;;;;;20.06;93.07;101054.16;7388209;19;20030;-66
2022/08/18 03:39:14;;;;;;;8.35;3.40;;;;;;;20.06;93.01;101053.34;7386655;19;20376;-68
2022/08/18 03:41:43;;;;;;;11.80;4.20;;;;;;;20.01;93.82;101055.84;7388645;19;20010;-70
2022/08/18 03:44:26;;;;;;;9.88;3.97;;;;;;;19.99;94.08;101052.53;7387296;19;20017;-66
2022/08/18 03:46:53;;;;;;;8.15;3.55;;;;;;;19.97;94.09;101047.41;7388337;19;20017;-67
2022/08/18 03:49:21;;;;;;;13.35;3.72;;;;;;;20.00;95.18;101046.19;7383887;19;20035;-66
2022/08/18 03:51:50;;;;;;;10.35;3.90;;;;;;;19.99;94.95;101042.69;7387595;19;20367;-66
2022/08/18 03:54:18;;;;;;;13.38;3.90;;;;;;;20.02;95.04;101044.91;7387159;19;20105;-67
2022/08/18 03:56:46;;;;;;;11.27;4.38;;;;;;;20.03;95.18;101037.72;7387349;19;20015;-67
2022/08/18 03:59:17;;;;;;;11.90;3.47;;;;;;;20.03;95.18;101037.72;7386894;19;20014;-67
2022/08/18 04:01:46;;;;;;;10.48;3.22;;;;;;;20.04;94.58;101034.03;7387728;19;20370;-67
2022/08/18 04:04:17;;;;;;;8.25;3.90;;;;;;;20.03;94.80;101038.56;7383488;19;20800;-67
2022/08/18 04:06:53;;;;;;;13.38;3.65;;;;;;;20.01;94.49;101037.94;7384652;19;20006;-67
2022/08/18 04:09:23;;;;;;;9.27;3.35;;;;;;;20.02;94.80;101039.56;7385260;19;20377;-67
2022/08/18 04:11:51;;;;;;;14.90;4.63;;;;;;;20.04;94.72;101042.06;7389218;19;20014;-67
2022/08/18 04:14:20;;;;;;;13.30;4.30;;;;;;;20.07;94.99;101036.28;7387747;19;20015;-66
2022/08/18 04:16:47;;;;;;;8.13;4.03;;;;;;;20.08;94.06;101044.09;7386099;19;20019;-66
2022/08/18 04:19:16;;;;;;;7.70;3.63;;;;;;;20.09;94.06;101034.22;7385891;19;20089;-68
2022/08/18 04:21:55;;;;;;;8.60;4.10;;;;;;;20.08;95.02;101036.06;7389562;19;20370;-68
2022/08/18 04:24:22;;;;;;;11.93;3.72;;;;;;;20.10;94.66;101029.72;7387042;19;20045;-66
2022/08/18 04:26:50;;;;;;;9.82;4.57;;;;;;;20.10;94.61;101033.19;7388326;19;20288;-67
2022/08/18 04:29:19;;;;;;;12.20;5.20;;;;;;;20.15;93.62;101035.25;7387490;19;20430;-64
2022/08/18 04:31:48;;;;;;;12.25;4.90;;;;;;;20.12;94.05;101031.13;7389012;19;20542;-63
2022/08/18 04:34:17;;;;;;;14.30;4.57;;;;;;;20.11;93.75;101034.84;7385386;19;20077;-63
2022/08/18 04:36:44;;;;;;;11.93;4.70;;;;;;;20.10;93.29;101040.41;7386928;19;20475;-63
2022/08/18 04:39:12;;;;;;;13.65;4.97;;;;;;;20.07;93.88;101041.63;7387281;19;20031;-63
2022/08/18 04:41:42;;;;;;;12.00;5.13;;;;;;;20.06;94.50;101032.78;7387247;19;20020;-63
2022/08/18 04:44:11;;;;;;;12.52;4.88;;;;;;;20.07;94.38;101029.09;7388728;19;20335;-67
2022/08/18 04:46:42;;;;;;;18.35;8.95;;;;;;;20.07;95.06;101030.94;7385416;19;20021;-66
2022/08/18 04:49:10;;;;;;;14.52;5.82;;;;;;;20.08;94.97;101044.09;7383063;19;20021;-66
2022/08/18 04:51:42;;;;;;;14.55;5.00;;;;;;;20.08;95.04;101030.72;7386682;19;20471;-67
2022/08/18 04:54:29;;;;;;;11.93;4.75;;;;;;;20.10;95.28;101035.88;7384948;19;20018;-66
2022/08/18 04:56:56;;;;;;;11.25;4.85;;;;;;;20.08;94.84;101035.25;7386962;19;20034;-67
2022/08/18 04:59:24;;;;;;;11.48;4.35;;;;;;;20.06;94.60;101035.44;7386186;19;20014;-66
2022/08/18 05:01:51;;;;;;;8.40;3.70;;;;;;;20.08;94.43;101036.06;7387243;19;20070;-66
2022/08/18 05:04:18;;;;;;;10.55;4.60;;;;;;;20.08;94.58;101030.72;7382228;19;20096;-67
2022/08/18 05:06:45;;;;;;;11.45;4.80;;;;;;;20.10;94.03;101030.53;7386280;19;20484;-66
2022/08/18 05:09:14;;;;;;;11.68;4.47;;;;;;;20.11;93.85;101034.03;7385079;19;20022;-66
2022/08/18 05:11:49;;;;;;;11.35;3.63;;;;;;;20.11;93.76;101026.84;7386712;19;20030;-66
2022/08/18 05:14:16;;;;;;;16.95;4.50;;;;;;;20.12;94.10;101036.47;7386407;19;20404;-66
2022/08/18 05:16:44;;;;;;;13.48;4.72;;;;;;;20.13;93.61;101038.13;7387761;19;20477;-68
2022/08/18 05:19:21;;;;;;;15.27;4.50;;;;;;;20.13;93.81;101038.13;7382592;19;20014;-67
2022/08/18 05:21:57;;;;;;;8.27;3.97;;;;;;;20.17;93.68;101035.84;7385550;19;20010;-67
2022/08/18 05:24:30;;;;;;;12.35;5.15;;;;;;;20.18;93.60;101032.13;7385319;19;20444;-65
2022/08/18 05:27:06;;;;;;;11.32;4.97;;;;;;;20.19;93.81;101025.75;7384624;19;20015;-66
2022/08/18 05:29:36;;;;;;;13.35;4.70;;;;;;;20.18;93.63;101022.28;7385336;19;20071;-67
2022/08/18 05:32:13;;;;;;;16.95;5.07;;;;;;;20.20;93.95;101024.75;7386329;19;20386;-66
2022/08/18 05:35:11;;;;;;;11.50;5.15;;;;;;;20.21;94.27;101029.06;7381999;19;20014;-66
2022/08/18 05:38:10;;;;;;;9.50;4.85;;;;;;;20.20;94.12;101027.41;7384087;19;20029;-64
2022/08/18 05:40:37;;;;;;;15.45;8.15;;;;;;;20.20;94.03;101030.91;7384438;19;20002;-64
2022/08/18 05:43:05;;;;;;;18.75;6.20;;;;;;;20.20;94.18;101027.41;7384498;19;20011;-66
2022/08/18 05:45:34;;;;;;;17.25;5.72;;;;;;;20.22;93.78;101030.69;7383467;19;20014;-66
2022/08/18 05:48:01;;;;;;;15.18;6.35;;;;;;;20.24;93.95;101031.28;7384191;19;20036;-66
2022/08/18 05:50:33;;;;;;;19.10;6.18;;;;;;;20.24;93.84;101034.78;7380543;19;20462;-66
2022/08/18 05:53:05;;;;;;;;;;;;;;;20.27;94.20;101038.88;7384883;19;20006;-66
2022/08/18 05:58:32;;;;;;;12.55;5.45;;;;;;;20.27;93.34;101044.22;7382960;19;20323;-66
2022/08/18 06:01:04;;;;;;;12.10;6.13;;;;;;;20.26;93.66;101042.59;7383403;19;20095;-66
2022/08/18 06:03:39;;;;;;;12.23;6.30;;;;;;;20.27;94.08;101042.38;7383097;19;20089;-66
2022/08/18 06:06:28;;;;;;;13.07;5.70;;;;;;;20.29;94.06;101040.31;7382672;19;20353;-66
2022/08/18 06:09:10;;;;;;;;;;;;;;;20.32;94.16;101047.13;7383846;19;20405;-63
2022/08/18 06:11:37;;;;;;;18.13;7.93;;;;;;;20.31;94.14;101032.13;7383604;19;20396;-67
2022/08/18 06:14:04;;;;;;;14.20;7.30;;;;;;;20.33;94.46;101030.88;7383352;19;20010;-65
2022/08/18 06:16:40;;;;;;;13.07;7.75;;;;;;;20.35;94.62;101033.34;7380289;19;20019;-65
2022/08/18 06:19:34;;;;;;;17.73;8.40;;;;;;;20.38;94.72;101030.25;7379753;19;20049;-63
2022/08/18 06:22:23;;;;;;;16.25;8.27;;;;;;;20.41;94.10;101035.19;7383742;19;20040;-62
2022/08/18 06:25:09;;;;;;;16.75;8.93;;;;;;;20.41;93.85;101037.84;7382714;19;20101;-66
2022/08/18 06:27:54;;;;;;;16.20;8.45;;;;;;;20.43;94.35;101033.09;7380725;19;20327;-66
2022/08/18 06:30:40;;;;;;;14.77;7.65;;;;;;;20.46;94.05;101032.69;7380295;19;20374;-66
2022/08/18 06:33:34;;;;;;;16.27;8.45;;;;;;;20.45;93.46;101031.88;7381599;19;20032;-65
2022/08/18 06:36:27;;;;;;;20.23;10.93;;;;;;;20.49;94.06;101035.75;7376863;19;20021;-66
2022/08/18 06:39:13;;;;;;;19.80;8.95;;;;;;;20.52;93.37;101037.16;7380548;19;20065;-66
2022/08/18 06:41:49;;;;;;;17.23;8.05;;;;;;;20.51;92.56;101038.22;7391405;19;20025;-64
2022/08/18 06:44:22;;;;;;;19.02;8.35;;;;;;;20.52;91.92;101031.81;7389205;19;20107;-65
2022/08/18 06:47:03;;;;;;;13.48;7.75;;;;;;;20.53;91.58;101030.78;7388914;19;20038;-65
2022/08/18 06:49:53;;;;;;;17.58;8.00;;;;;;;20.54;91.04;101034.28;7384780;19;20028;-65
2022/08/18 06:52:20;;;;;;;11.30;7.15;;;;;;;20.55;91.05;101042.09;7388787;19;20039;-65
2022/08/18 06:54:48;;;;;;;13.60;7.18;;;;;;;20.57;91.15;101037.34;7390261;19;20513;-64
2022/08/18 06:57:26;;;;;;;14.27;6.82;;;;;;;20.63;91.78;101041.84;7386930;19;20013;-68
2022/08/18 07:00:18;;;;;;;14.73;7.40;;;;;;;20.67;92.03;101034.25;7390628;19;20496;-67
2022/08/18 07:02:47;;;;;;;16.33;6.97;;;;;;;20.69;91.86;101035.66;7389931;19;20021;-67
2022/08/18 07:05:18;;;;;;;11.15;7.35;;;;;;;20.72;91.58;101043.28;7385761;19;20571;-67
2022/08/18 07:07:59;;;;;;;14.27;7.35;;;;;;;20.73;91.22;101042.22;7388360;19;20021;-68
2022/08/18 07:10:40;;;;;;;18.02;9.50;;;;;;;20.75;91.41;101042.81;7388002;19;20010;-68
2022/08/18 07:13:21;;;;;;;16.88;7.10;;;;;;;20.78;91.31;101037.03;7389585;19;20013;-67
2022/08/18 07:15:48;;;;;;;13.77;7.22;;;;;;;20.82;91.60;101030.25;7388833;19;20022;-68
2022/08/18 07:18:28;;;;;;;13.75;7.22;;;;;;;20.85;91.58;101040.50;7387805;19;20021;-66
2022/08/18 07:21:00;;;;;;;14.45;8.05;;;;;;;20.88;90.70;101040.06;7383498;19;20114;-67
2022/08/18 07:23:33;;;;;;;16.30;7.63;;;;;;;20.92;90.32;101046.66;7388533;19;20652;-67
2022/08/18 07:26:09;;;;;;;13.75;6.80;;;;;;;20.96;90.12;101046.22;7388697;19;20095;-66
2022/08/18 07:28:43;;;;;;;12.95;6.65;;;;;;;21.00;89.88;101050.09;7387717;19;20020;-66
2022/08/18 07:31:25;;;;;;;15.85;7.95;;;;;;;21.02;89.32;101048.84;7385829;19;20503;-66
2022/08/18 07:34:01;;;;;;;13.30;7.82;;;;;;;21.03;89.52;101052.34;7385651;19;20003;-67
2022/08/18 07:36:36;;;;;;;13.30;7.82;;;;;;;21.04;89.98;101048.63;7388108;19;20378;-67
2022/08/18 07:39:25;;;;;;;16.17;7.60;;;;;;;21.03;89.62;101057.69;7387472;19;20454;-67
2022/08/18 07:41:56;;;;;;;18.42;8.05;;;;;;;21.03;89.53;101057.69;7388072;19;20007;-67
2022/08/18 07:44:52;;;;;;;15.98;7.70;;;;;;;21.07;90.87;101050.88;7385269;19;20505;-67
2022/08/18 07:47:28;;;;;;;16.00;7.63;;;;;;;21.09;91.35;101057.63;7387757;19;20017;-67
2022/08/18 07:49:57;;;;;;;17.50;7.75;;;;;;;21.10;91.63;101061.13;7383774;19;20021;-67
2022/08/18 07:53:07;;;;;;;13.55;7.53;;;;;;;21.13;92.11;101063.41;7385566;19;20018;-67
2022/08/18 07:55:35;;;;;;;17.50;8.88;;;;;;;21.13;91.33;101060.72;7387269;19;20021;-67
2022/08/18 07:58:34;;;;;;;13.82;8.38;;;;;;;21.11;90.38;101057.44;7387253;19;20029;-68
2022/08/18 08:01:18;;;;;;;16.95;7.07;;;;;;;21.09;89.96;101062.16;7388802;19;20501;-68
2022/08/18 08:04:08;;;;;;;13.90;7.35;;;;;;;21.10;90.37;101061.97;7387286;19;20506;-64
2022/08/18 08:07:25;;;;;;;18.35;9.65;;;;;;;21.11;89.39;101060.94;7387568;19;20467;-64
2022/08/18 08:10:22;;;;;;;16.95;8.30;;;;;;;21.12;89.25;101061.75;7385703;19;20093;-65
2022/08/18 08:13:29;;;;;;;14.43;7.60;;;;;;;21.14;89.55;101067.72;7386356;19;20074;-65
2022/08/18 08:16:36;;;;;;;19.05;8.57;;;;;;;21.20;89.88;101070.38;7384445;19;20011;-64
2022/08/18 08:19:28;;;;;;;15.48;8.18;;;;;;;21.21;88.65;101060.47;7383825;19;20014;-65
2022/08/18 08:22:28;;;;;;;18.98;9.18;;;;;;;21.21;88.16;101073.88;7385661;19;20021;-64
2022/08/18 08:25:24;;;;;;;20.63;8.95;;;;;;;21.18;87.65;101058.25;7384191;19;20196;-65
2022/08/18 08:28:32;;;;;;;16.88;8.60;;;;;;;21.13;87.64;101066.06;7385788;19;20359;-66
2022/08/18 08:31:23;;;;;;;19.70;8.98;;;;;;;21.09;88.32;101059.50;7383788;19;20019;-66
2022/08/18 08:34:10;;;;;;;20.33;9.43;;;;;;;21.07;88.25;101062.41;7383290;19;20006;-69
2022/08/18 08:36:40;;;;;;;18.63;8.82;;;;;;;21.03;88.66;101069.19;7385746;19;20018;-66
2022/08/18 08:39:14;;;;;;;20.60;10.32;;;;;;;21.02;88.98;101067.59;7383059;19;20044;-68
2022/08/18 08:41:53;;;;;;;17.75;9.32;;;;;;;21.05;89.27;101069.81;7386317;19;20022;-67
2022/08/18 08:44:49;;;;;;;24.23;9.75;;;;;;;21.12;89.25;101064.44;7384342;19;20014;-67
2022/08/18 08:47:43;;;;;;;15.57;8.55;;;;;;;21.18;89.16;101060.94;7386498;19;20043;-71
2022/08/18 08:50:20;;;;;;;20.35;11.23;;;;;;;21.26;88.44;101063.31;7381112;19;20309;-68
2022/08/18 08:52:54;;;;;;;14.45;8.15;;;;;;;21.36;87.26;101063.66;7384989;19;20082;-67
2022/08/18 08:55:40;;;;;;;13.20;6.85;;;;;;;21.46;86.82;101065.84;7385907;19;20122;-67
2022/08/18 08:58:14;;;;;;;15.38;8.60;;;;;;;21.51;86.31;101058.81;7383737;19;20447;-68
2022/08/18 09:00:42;;;;;;;17.25;10.85;;;;;;;21.57;86.53;101057.13;7385624;19;20029;-68
2022/08/18 09:03:24;;;;;;;17.38;9.27;;;;;;;21.62;86.15;101068.81;7381722;19;20013;-67
2022/08/18 09:06:05;;;;;;;19.40;7.80;;;;;;;21.68;84.48;101067.94;7383659;19;20022;-67
2022/08/18 09:08:39;;;;;;;13.82;7.25;;;;;;;21.74;84.85;101061.69;7387189;19;20550;-67
2022/08/18 09:11:28;;;;;;;14.02;7.35;;;;;;;21.77;85.14;101068.47;7385435;19;20760;-67
2022/08/18 09:14:04;;;;;;;13.18;7.13;;;;;;;21.80;84.13;101065.34;7386264;19;20277;-67
2022/08/18 09:17:08;;;;;;;11.85;7.43;;;;;;;21.82;83.91;101063.28;7386218;19;20275;-67
2022/08/18 09:19:53;;;;;;;10.55;6.65;;;;;;;21.84;83.96;101060.38;7382589;19;20593;-67
2022/08/18 09:23:15;;;;;;;15.63;8.25;;;;;;;21.87;84.74;101058.06;7385119;19;20035;-67
2022/08/18 09:25:42;;;;;;;12.70;6.85;;;;;;;21.92;84.06;101055.53;7381034;19;20010;-67
2022/08/18 09:28:11;;;;;;;10.43;5.97;;;;;;;21.99;83.97;101063.56;7385010;19;20110;-66
2022/08/18 09:30:43;;;;;;;12.38;6.40;;;;;;;22.11;83.34;101056.41;7385284;19;20081;-67
2022/08/18 09:33:37;;;;;;;10.95;5.82;;;;;;;22.24;82.58;101066.19;7387965;19;20360;-66
2022/08/18 09:36:36;;;;;;;11.02;5.57;;;;;;;22.38;81.70;101062.28;7383542;19;20018;-67
2022/08/18 09:42:15;;;;;;;9.35;6.00;;;;;;;22.56;79.65;101063.09;7385462;19;20014;-65
2022/08/18 09:44:47;;;;;;;9.20;4.93;;;;;;;22.58;80.06;101060.19;7384471;19;20043;-64
2022/08/18 09:47:20;;;;;;;8.68;6.30;;;;;;;22.57;80.43;101064.72;7385266;19;20013;-64
2022/08/18 09:49:52;;;;;;;10.43;6.00;;;;;;;22.58;80.86;101066.38;7383236;19;20018;-64
2022/08/18 09:52:20;;;;;;;11.35;6.10;;;;;;;22.65;80.96;101057.41;7384338;19;20447;-65
2022/08/18 09:54:59;;;;;;;11.15;6.15;;;;;;;22.72;80.78;101052.81;7384719;19;20097;-67
2022/08/18 09:57:29;;;;;;;11.98;5.22;;;;;;;22.81;78.51;101054.94;7384102;19;20016;-67
2022/08/18 10:00:18;;;;;;;6.97;4.38;;;;;;;22.90;75.89;101053.59;7384030;19;20576;-66
2022/08/18 10:02:49;;;;;;;9.75;5.78;;;;;;;23.00;75.45;101042.31;7384495;19;20010;-67
2022/08/18 10:05:19;;;;;;;10.73;5.38;;;;;;;23.12;75.82;101051.19;7379846;19;20026;-66
2022/08/18 10:08:13;;;;;;;8.90;4.38;;;;;;;23.24;74.00;101035.09;7384676;19;20084;-67
2022/08/18 10:10:59;;;;;;;9.48;5.28;;;;;;;23.32;74.72;101032.06;7382571;19;20025;-67
2022/08/18 10:14:05;;;;;;;9.68;5.65;;;;;;;23.35;75.01;101026.25;7384544;19;20007;-67
2022/08/18 10:16:56;;;;;;;8.02;5.82;;;;;;;23.38;74.97;101031.97;7384887;19;20614;-66
2022/08/18 10:19:43;;;;;;;9.45;5.03;;;;;;;23.38;74.77;101028.47;7381275;19;20297;-67
2022/08/18 10:22:12;;;;;;;9.23;5.05;;;;;;;23.46;74.79;101032.72;7384934;19;20014;-67
2022/08/18 10:24:53;;;;;;;11.93;5.90;;;;;;;23.48;73.99;101025.22;7384722;19;20013;-67
2022/08/18 10:27:45;;;;;;;8.07;4.40;;;;;;;23.45;72.97;101026.53;7383625;19;20733;-65
2022/08/18 10:30:45;;;;;;;6.70;3.55;;;;;;;23.42;71.51;101025.06;7382833;19;20059;-65
2022/08/18 10:33:57;;;;;;;5.53;4.38;;;;;;;23.38;72.33;101020.41;7385529;19;20014;-65
2022/08/18 10:36:43;;;;;;;6.05;4.47;;;;;;;23.36;72.01;101014.47;7380501;19;20070;-66
2022/08/18 10:39:12;;;;;;;7.25;4.15;;;;;;;23.32;71.98;101011.41;7382345;19;20532;-67
2022/08/18 10:42:08;;;;;;;9.25;5.35;;;;;;;23.31;72.63;101007.09;7382405;19;20022;-68
2022/08/18 10:44:44;;;;;;;9.32;5.38;;;;;;;23.30;73.01;101010.00;7382343;19;20015;-66
2022/08/18 10:47:26;;;;;;;7.22;3.97;;;;;;;23.28;70.32;101006.72;7384282;19;20064;-66
2022/08/18 10:50:03;;;;;;;5.88;4.30;;;;;;;23.30;72.23;101010.84;7379982;19;20011;-66
2022/08/18 10:52:53;;;;;;;6.78;4.97;;;;;;;23.32;71.81;101005.22;7380241;19;20646;-66
2022/08/18 10:55:50;;;;;;;8.75;4.70;;;;;;;23.36;71.89;101011.78;7383396;19;20022;-66
2022/08/18 10:58:41;;;;;;;6.38;4.43;;;;;;;23.40;72.24;101010.25;7382793;19;20019;-67
2022/08/18 11:01:17;;;;;;;8.65;3.85;;;;;;;23.48;71.70;101003.72;7381410;19;20511;-67
2022/08/18 11:04:03;;;;;;;5.38;4.10;;;;;;;23.53;70.80;101003.84;7380293;19;20037;-66
2022/08/18 11:07:00;;;;;;;7.53;3.88;;;;;;;23.56;68.74;101003.41;7381846;19;20022;-66
2022/08/18 11:09:34;;;;;;;7.78;3.47;;;;;;;23.59;68.87;101006.44;7383694;19;20642;-68
2022/08/18 11:12:07;;;;;;;6.55;3.58;;;;;;;23.65;68.10;101007.38;7382512;19;20452;-66
2022/08/18 11:14:37;;;;;;;6.38;4.18;;;;;;;23.67;68.55;100995.31;7382143;19;20014;-66
2022/08/18 11:17:34;;;;;;;6.45;3.95;;;;;;;23.78;68.98;100993.66;7384336;19;20024;-67
2022/08/18 11:20:10;;;;;;;8.05;4.53;;;;;;;23.82;68.79;100990.28;7377132;19;20014;-62
2022/08/18 11:22:37;;;;;;;7.32;4.20;;;;;;;23.87;68.18;100986.91;7381811;19;20015;-63
2022/08/18 11:25:19;;;;;;;7.38;3.80;;;;;;;23.90;67.37;100986.41;7383671;19;20014;-63
2022/08/18 11:27:47;;;;;;;8.02;5.03;;;;;;;23.97;69.02;100986.31;7389035;19;20453;-63
2022/08/18 11:30:16;;;;;;;5.93;4.35;;;;;;;24.00;68.23;100983.13;7369600;19;20376;-64
2022/08/18 11:32:44;;;;;;;7.70;4.00;;;;;;;24.03;67.88;100985.31;7378268;19;20320;-62
2022/08/18 11:35:46;;;;;;;6.43;3.90;;;;;;;24.02;66.11;100981.84;7384435;19;20478;-62
2022/08/18 11:38:14;;;;;;;8.07;4.00;;;;;;;24.04;66.51;100968.97;7385924;19;20529;-62
2022/08/18 11:40:53;;;;;;;4.85;3.42;;;;;;;24.08;66.22;100962.06;7387104;19;20010;-63
2022/08/18 11:43:40;;;;;;;5.82;3.60;;;;;;;24.14;64.97;100965.66;7385174;19;20018;-64
2022/08/18 11:46:37;;;;;;;4.43;3.15;;;;;;;24.22;64.23;100959.94;7385922;19;20017;-66
2022/08/18 11:49:25;;;;;;;6.93;4.15;;;;;;;24.32;64.70;100962.84;7384103;19;20014;-62
2022/08/18 11:52:16;;;;;;;5.93;3.72;;;;;;;24.36;64.93;100961.28;7384907;19;20034;-63
2022/08/18 11:55:05;;;;;;;7.22;4.13;;;;;;;24.39;64.17;100958.09;7387207;19;20072;-64
2022/08/18 11:57:55;;;;;;;6.90;4.05;;;;;;;24.40;64.86;100950.84;7386648;19;20014;-64
2022/08/18 12:00:47;;;;;;;8.00;4.93;;;;;;;24.44;64.81;100952.00;7386990;19;20145;-63
2022/08/18 12:03:41;;;;;;;5.68;4.22;;;;;;;24.45;65.15;100967.91;7387697;19;20021;-62
2022/08/18 12:06:20;;;;;;;7.07;4.47;;;;;;;24.54;67.43;100962.97;7386426;19;20491;-62
2022/08/18 12:08:54;;;;;;;8.27;5.00;;;;;;;24.60;65.54;100968.19;7387986;19;20016;-63
2022/08/18 12:11:31;;;;;;;6.70;4.50;;;;;;;24.66;65.78;100958.34;7386353;19;20467;-62
2022/08/18 12:14:08;;;;;;;6.05;3.75;;;;;;;24.69;64.99;100955.16;7387756;19;20078;-63
2022/08/18 12:16:55;;;;;;;6.35;4.55;;;;;;;24.70;65.34;100954.09;7387367;19;20029;-62